This site, now in its 22nd season, is a labour of love and fun from one of Ottawa's most avid time trialists and number crunchers. It adheres to and is permitted by the laws of Canada, promotes the objectives of every bicycle club whose results are shown, and is donated free of charge by myself for your enjoyment and usage. If you would like results from series you ride in to be shown here, give me (celia@drmath.ca) a shout!
NOTE that this site had to be quickly moved to a new server with a new version of Perl. Unfortunately the way of interacting with the web form has changed, so I'll have to do some reprogramming to get the buttons and search boxes working. Meanwhile the links work fine and you can always add query specifications into the URL! :-)


Index Page
ATT OTT WTT AATT CFCTT VVVTT
Help resultformat:
Case-sensitive

OBC Open TT Series - 2016-Jul-07 - 15km (Rockliffe Pkwy) (EvtFactor = 0.9419)

Ottawa Weather (18:00): Mostly Cloudy. Temperature: 28.7C, Wind: N 20km/h, Humidex: 35, Relative humidity: 54%, Dew point: 19C, Pressure: 100.8kPa, Visibility: 24km.
Ottawa Weather (19:00): Mostly Cloudy. Temperature: 26.6C, Wind: NNE 18km/h, Humidex: 32, Relative humidity: 57%, Dew point: 18C, Pressure: 100.8kPa, Visibility: 24km.
Ottawa Weather (20:00): Mostly Cloudy. Temperature: 26.3C, Wind: NNE 15km/h, Humidex: 32, Relative humidity: 57%, Dew point: 17C, Pressure: 100.9kPa, Visibility: 24km.


These results were first posted on the OBC web site circa 11:30 on 2016-Jul-14 and are available here for your added pleasure and analysis.

 
 

BESTS?
 
Y 1 Dal-Cin, Matteo  SIL 18:06 49.724 1/59 U30M 1/3  
2 Amos, Ron  OBC/RWR 19:29 46.193 2/59 U60M 1/8 0.9846
3 Rendall, Glen  RWR 19:55 45.188 3/59 U50M 1/19  
4 Diaz, Rodrigo  OBC/EUR 20:07 44.739 4/59 U40M 1/6 0.9656
5 Chapman, Stephen IND 20:16 44.408 5/59 U40M 2/6 1.0299
6 Toelke, Joachim EUR 20:20 44.262 6/59 U50M 2/19 0.9732
7 Carrier, Damien ECG 20:22 44.190 7/59 U50M 3/19 1.0858
8 Danner, Dale CYC 20:29 43.938 8/59 U50M 4/19 1.0196
9 Fauser, Cody 613 20:40 43.548 9/59 U40M 3/6  
Lavoie, Marcel  WQW 20:40 43.548 9/59 U50M 5/19 0.9831
11 Wright, Calah EUR 20:44 43.408 11/59 U40F 1/1  
12 Munden, David IND 20:46 43.339 12/59 U50M 6/19  
13 Labonte, Philippe OBC 21:02 42.789 13/59 U30M 2/3 1.0410
14 Tsilemos, Jim RWR 21:21 42.155 14/59 U50M 7/19  
15 Desbiens, Martin OBC/RDO 21:23 42.089 15/59 U50M 8/19 1.0236
16 Martin, David OBC 21:38 41.602 16/59 U50M 9/19 1.0831
17 DeVidi, Robert  OBC 21:40 41.538 17/59 U60M 2/8 1.0684
18 Page, Graham OBC/NTF 21:57 41.002 18/59 U40M 4/6 0.9639
19 Guenette, Jean-Yves TEK 22:00 40.909 19/59 U70M 1/5 1.0555
20 Phelps, Ryan IND 22:05 40.755 20/59 U40M 5/6 1.0091
21 Cameron, Allen  OBC/RWR 22:09 40.632 21/59 U60M 3/8 1.1051
22 Budgell, Glen  OBC 22:29 40.030 22/59 U70M 2/5 0.9889
23 Rivoche, Michael WQW 22:32 39.941 23/59 U60M 4/8 1.1367
Smeulders, Paul WQW 22:32 39.941 23/59 U60M 4/8 0.9714
25 Wright, David EUR 22:38 39.764 25/59 U50M 10/19 1.0044
26 Burge, Larry  OBC 22:39 39.735 26/59 U60M 6/8 0.9501
27 Larson, Eric RWR 22:46 39.531 27/59 U50M 11/19  
28 Till, Michael WQW 22:55 39.273 28/59 U60M 7/8 0.9298
29 Basu, Ben  OBC 22:56 39.244 29/59 U50M 12/19  
Deschamps, Martin WQW 22:56 39.244 29/59 U50M 12/19 1.0308
31 Canning, Jim OBC 22:57 39.216 31/59 U50M 14/19 1.0022
32 Hicks, Bob  OBC 23:07 38.933 32/59 U80M 1/5 1.0087
33 Buffa, Alex  OBC 23:12 38.793 33/59 U50M 15/19  
34 Clarke, Shawn SRC/CYC 23:14 38.737 34/59 U40M 6/6 0.8942
35 Kozak, Robert OBC 23:15 38.710 35/59 U19M 1/1 1.0525
36 Déry, Nicolas  OBC 23:18 38.627 36/59 U50M 16/19 0.9936
37 Trepanier, Mathieu OBC 23:19 38.599 37/59 U50M 17/19 0.9453
38 McDonald Ibarra, Kory  OBC 23:25 38.434 38/59 U50F 1/2 1.0565
39 Morvan, Jacques  OBC 23:42 37.975 39/59 U80M 2/5 0.9585
40 Looman, Greg OBC 23:46 37.868 40/59 U50M 18/19 0.9791
41 Guignard, Christian OBC 23:47 37.842 41/59 U70M 3/5 0.9423
42 Kandoy, Meylina OBC 23:51 37.736 42/59 U60F 1/1 1.0169
43 Moerman, Bram  OBC 24:13 37.164 43/59 U80M 3/5 0.9795
Y 44 Cheff, Emmanuel OBC 24:15 37.113 44/59 U15M 1/4 1.1333
45 Messier, Jill WQW 24:18 37.037 45/59 U30F 1/1 0.9141
46 Wright, Jake EUR 24:26 36.835 46/59 U17M 1/1 0.9656
47 Fontaine, Dominic TEK 24:36 36.585 47/59 U50M 19/19 1.1007
48 Zuiderveen, Thomas OBC 24:38 36.536 48/59 U30M 3/3 1.0453
49 Girard, Nicolas OBC 25:06 35.857 49/59 U15M 2/4 1.1308
50 Ingham, Alison  OBC/RWR 25:07 35.833 50/59 U50F 2/2 1.0040
51 Dufour-Rivard, Adam OBC 25:11 35.738 51/59 U15M 3/4 1.0505
52 Dore, Morley OBC 25:30 35.294 52/59 U80M 4/5 1.0620
53 Egener, Chris OBC 25:59 34.638 53/59 U15M 4/4  
54 Cockburn, John OBC 26:09 34.417 54/59 U70M 4/5  
55 Dobbs, Brian OBC 26:10 34.395 55/59 U70M 5/5 0.9791
56 McInnis, Celia  OBC/ABC 27:21 32.907 56/59 U70F 1/1 0.8858
57 Horn, Liv OBC 28:48 31.250 57/59 U15F 1/1  
58 Douglas, Mark  OBC 28:53 31.160 58/59 U60M 8/8 1.2067
59 St. John, Ronald OBC 29:02 30.999 59/59 U80M 5/5  
 
Average Speed of all of the above 59 finishes (885km in 22:42:07):38.983
>>>Average of the Average Speeds for these 59 finishes39.354<<<
 

The number of data records shown above is 59
The server processing of your query took: 1 wallclock secs ( 0.05 usr + 0.02 sys = 0.06 CPU)

     


Mar 25 (Good Friday - cancelled)
May 3 (10km) May 5 May 10 May 10 (10km) May 12 May 17 May 17 (10km) May 19 May 24 May 24 (10km) May 26 May 31 May 31 (10km)
Jun 2 Jun 5 (40km) Jun 7 Jun 7 Jun 9 Jun 14 Jun 14 Jun 16 Jun 21 Jun 21 Jun 23 Jun 28 Jun 28 Jun 30
Jul 3 (40km) Jul 5 Jul 5
  Jul 7  
Jul 12 Jul 12 Jul 14 Jul 19 Jul 19 Jul 21 Jul 26 Jul 26 Jul 28
Aug 2 Aug 2 Aug 4 Aug 7 (40km) Aug 9 Aug 9 Aug 11 Aug 16 (canceled) Aug 16 (canceled) Aug 18 Aug 23 Aug 23 Aug 25 Aug 30 Aug 30 (Invitational)
Sep 1 Sep 4 (40km) Sep 6 Sep 8 Sep 13 Sep 20

WTT Rankings for All Participants
4 Best Speeds (≥4 WTT, ≤1 10km)     4 Best Speeds (≥4 WTT, ≤1 10km) by category
OTT Best Three 15km Rankings
Overall     by category     age-Hcap Female   age-Hcap Male
[OWA]TT BAR Ranking
Overall     by category     Rider "Consistency-Graph"
ABC BAR Ranking
Overall     by category     Rider "Consistency-Graph"
Other years
TT Calculator All TT People All TT events
ABC Home VVV Home
CKAP GOLD MEDAL
Other Links

Please send your comments and suggestions to: Celia McInnis
Copyright © 1998-2021 Celia McInnis. All rights reserved. Links are welcomed.